Strona główna
METAR-TAF:

METAR-TAF

Lotnisko :

Port lotniczy Sukhothai

Sukhothai, Tajlandia

Szerokość geograficzna: 17-14-16N, Długość geograficzna: 099-49-05E, wysokość: 55 m

Aktualna obserwacja pogody

Raport powstał 23 minut temu, godzina 05:00 UTC
Wiatr 3 kt od południe
Temperatura 36°C
Wilgotność 31%
Ciśnienie 1008 hPa
Widzialność: 6000 m

METAR: VTPO 300500Z 17003KT 6000 NSC 36/16 Q1008 NOSIG

czas: 12:23 (05:23 UTC)

Prognoza

Raport powstał 6 godziny i 23 minut temu, godzina 23:00 UTC
Prognoza ważna od 30 godzina 00 UTC do 30 godzina 24 UTC
Wiatr 5 kt od południowo-południowy wschód
Widzialność: 2000 m
zamglenie
Stopniowe zmiany
od 30 godzina 06 UTC do 30 godzina 08 UTC
Widzialność: 6000 m

TAF: VTPO 292300Z 3000/3024 15005KT 2000 BR NSC BECMG 3006/3008 6000 NSW

Obserwacja i prognoza pogody dla ponad 4000 lotnisk (raport METAR i TAF).

Dostępne stacje oznaczono żółtymi i czerwonymi punktami na mapie.

Najedź kursorem aby zobaczyć nazwę stacji.

Kliknij aby zobaczyć obserwacje i prognozy pogody.

Aby zmienić mapę: kliknij na zielony przycisk z czarnym krzyżykiem, aby powiększyć; na zielony przycisk z myślnikiem, aby pomniejszyć; na zielone strzałki, aby przejść do map sąsiednich.


METAR-TAF: